Time;durP1;ratioP1;P1;durP2;ratioP2;P2;SDS_P1;SDS_P2;PMS_P1;PMS_P2;Temp;Humidity;BMP_temperature;BMP_pressure;BME280_temperature;BME280_humidity;BME280_pressure;Samples;Min_cycle;Max_cycle;Signal;HPM_P1;HPM_P2
2021/07/19 00:00:23;;;;;;;14.37;11.63;;;18.80;99.90;;;;;;4974586;28;20212;-76
2021/07/19 00:02:54;;;;;;;14.30;12.17;;;18.90;99.90;;;;;;4974521;28;20176;-76
2021/07/19 00:05:20;;;;;;;14.20;11.57;;;18.80;99.90;;;;;;4974254;28;20289;-76
2021/07/19 00:07:46;;;;;;;14.13;11.63;;;18.90;99.90;;;;;;4956783;28;20528;-76
2021/07/19 00:10:14;;;;;;;14.00;11.53;;;18.90;99.90;;;;;;4960567;28;20183;-76
2021/07/19 00:12:40;;;;;;;13.60;12.27;;;18.80;99.90;;;;;;4978021;28;20272;-77
2021/07/19 00:15:08;;;;;;;12.57;11.23;;;18.80;99.90;;;;;;4977604;28;20215;-76
2021/07/19 00:17:34;;;;;;;13.13;11.73;;;18.70;99.90;;;;;;4960835;28;20588;-76
2021/07/19 00:19:59;;;;;;;17.87;11.57;;;18.60;99.90;;;;;;4978289;28;20179;-78
2021/07/19 00:22:25;;;;;;;12.67;11.43;;;18.60;99.90;;;;;;4960519;28;20231;-76
2021/07/19 00:24:51;;;;;;;12.80;11.60;;;18.50;99.90;;;;;;4978009;28;20200;-76
2021/07/19 00:27:16;;;;;;;13.03;11.33;;;18.50;99.90;;;;;;4978247;28;20173;-76
2021/07/19 00:29:42;;;;;;;13.93;12.47;;;18.40;99.90;;;;;;4960969;28;20180;-76
2021/07/19 00:32:08;;;;;;;13.83;11.60;;;18.40;99.90;;;;;;4978098;28;20222;-76
2021/07/19 00:34:35;;;;;;;12.37;11.17;;;18.30;99.90;;;;;;4978129;28;20740;-76
2021/07/19 00:37:01;;;;;;;13.37;12.07;;;18.30;99.90;;;;;;4976876;28;20199;-77
2021/07/19 00:39:27;;;;;;;13.43;12.00;;;18.30;99.90;;;;;;4949598;28;20617;-76
2021/07/19 00:41:53;;;;;;;14.07;11.47;;;18.30;99.90;;;;;;4977737;28;20204;-76
2021/07/19 00:44:20;;;;;;;16.07;12.07;;;18.30;99.90;;;;;;4960240;28;20206;-75
2021/07/19 00:46:47;;;;;;;13.10;11.77;;;18.20;99.90;;;;;;4977438;28;20673;-76
2021/07/19 00:49:14;;;;;;;13.43;12.03;;;18.20;99.90;;;;;;4977455;28;20184;-75
2021/07/19 00:51:41;;;;;;;12.77;11.47;;;18.20;99.90;;;;;;4977436;28;20171;-76
2021/07/19 00:54:14;;;;;;;13.23;11.83;;;18.10;99.90;;;;;;4977500;28;20200;-76
2021/07/19 00:56:42;;;;;;;13.43;11.93;;;18.00;99.90;;;;;;4977400;28;20207;-77
2021/07/19 00:59:09;;;;;;;13.10;11.50;;;17.90;99.90;;;;;;4960089;28;20183;-76
2021/07/19 01:01:39;;;;;;;14.33;11.60;;;17.90;99.90;;;;;;4977616;28;20172;-77
2021/07/19 01:04:05;;;;;;;13.20;11.73;;;17.90;99.90;;;;;;4977180;28;20220;-76
2021/07/19 01:06:33;;;;;;;13.20;11.77;;;17.90;99.90;;;;;;4960679;28;20180;-76
2021/07/19 01:08:59;;;;;;;14.27;11.50;;;17.80;99.90;;;;;;4978331;28;20211;-76
2021/07/19 01:11:25;;;;;;;13.67;11.37;;;17.80;99.90;;;;;;4960913;28;20226;-73
2021/07/19 01:13:51;;;;;;;13.83;11.23;;;17.80;99.90;;;;;;4960501;28;20584;-76
2021/07/19 01:16:17;;;;;;;13.90;11.60;;;17.80;99.90;;;;;;4974676;28;20176;-76
2021/07/19 01:18:44;;;;;;;12.97;11.70;;;17.70;99.90;;;;;;4977194;28;20170;-76
2021/07/19 01:21:34;;;;;;;15.77;10.83;;;17.70;99.90;;;;;;4959505;28;20201;-76
2021/07/19 01:24:28;;;;;;;13.50;11.43;;;17.60;99.90;;;;;;4976511;28;20236;-76
2021/07/19 01:27:24;;;;;;;12.43;11.17;;;17.70;99.90;;;;;;4977890;28;20175;-77
2021/07/19 01:29:51;;;;;;;13.63;11.17;;;17.70;99.90;;;;;;4977882;28;20587;-76
2021/07/19 01:32:18;;;;;;;12.20;10.90;;;17.60;99.90;;;;;;4960579;28;20703;-76
2021/07/19 01:34:44;;;;;;;12.87;11.57;;;17.60;99.90;;;;;;4978095;28;20212;-76
2021/07/19 01:37:11;;;;;;;14.77;11.90;;;17.50;99.90;;;;;;4960511;28;20231;-76
2021/07/19 01:39:38;;;;;;;13.13;11.83;;;17.50;99.90;;;;;;4960482;28;20202;-76
2021/07/19 01:42:05;;;;;;;13.00;10.90;;;17.50;99.90;;;;;;4978050;28;20174;-76
2021/07/19 01:44:32;;;;;;;13.57;10.80;;;17.40;99.90;;;;;;4976993;28;20272;-76
2021/07/19 01:47:00;;;;;;;12.70;11.37;;;17.40;99.90;;;;;;4959337;28;20184;-76
2021/07/19 01:49:26;;;;;;;11.67;10.47;;;17.50;99.90;;;;;;4976473;28;20176;-74
2021/07/19 01:51:53;;;;;;;13.10;10.90;;;17.60;99.90;;;;;;4976332;28;20176;-76
2021/07/19 01:54:20;;;;;;;12.03;9.90;;;17.60;99.90;;;;;;4977170;28;20215;-76
2021/07/19 01:56:47;;;;;;;11.67;10.47;;;17.60;99.90;;;;;;4977387;28;20171;-76
2021/07/19 01:59:13;;;;;;;11.40;10.23;;;17.60;99.90;;;;;;4959563;28;20557;-75
2021/07/19 02:01:40;;;;;;;12.90;10.37;;;17.70;99.90;;;;;;4976684;28;20182;-76
2021/07/19 02:04:08;;;;;;;11.10;9.50;;;17.80;99.90;;;;;;4958626;28;20211;-76
2021/07/19 02:06:34;;;;;;;10.27;9.20;;;17.70;99.90;;;;;;4975545;28;20199;-76
2021/07/19 02:09:05;;;;;;;9.67;8.60;;;17.80;99.90;;;;;;4974534;28;20172;-78
2021/07/19 02:11:32;;;;;;;11.50;8.30;;;17.80;99.90;;;;;;4974997;28;20249;-76
2021/07/19 02:13:58;;;;;;;10.10;9.20;;;17.80;99.90;;;;;;4959345;28;20272;-76
2021/07/19 02:16:28;;;;;;;10.77;9.53;;;17.80;99.90;;;;;;4976949;28;20175;-76
2021/07/19 02:18:54;;;;;;;13.57;9.33;;;17.70;99.90;;;;;;4958542;28;20179;-76
2021/07/19 02:21:23;;;;;;;11.03;8.90;;;17.70;99.90;;;;;;4976264;28;20176;-76
2021/07/19 02:23:52;;;;;;;10.37;9.00;;;17.60;99.90;;;;;;4976956;28;20242;-76
2021/07/19 02:26:20;;;;;;;9.57;8.53;;;17.60;99.90;;;;;;4959102;28;20187;-76
2021/07/19 02:28:47;;;;;;;9.73;8.80;;;17.60;99.90;;;;;;4975920;28;20191;-76
2021/07/19 02:31:15;;;;;;;10.20;9.17;;;17.60;99.90;;;;;;4973002;28;20190;-75
2021/07/19 02:33:41;;;;;;;9.30;8.50;;;17.50;99.90;;;;;;4944846;28;20204;-77
2021/07/19 02:36:09;;;;;;;10.63;9.17;;;17.60;99.90;;;;;;4971008;28;20190;-76
2021/07/19 02:38:35;;;;;;;9.90;8.90;;;17.60;99.90;;;;;;4973960;28;20183;-75
2021/07/19 02:41:03;;;;;;;9.60;8.20;;;17.50;99.90;;;;;;4974264;28;20175;-76
2021/07/19 02:43:29;;;;;;;9.23;7.67;;;17.60;99.90;;;;;;4958309;28;20250;-75
2021/07/19 02:45:57;;;;;;;8.80;7.93;;;17.50;99.90;;;;;;4958376;28;20613;-77
2021/07/19 02:48:27;;;;;;;8.17;7.37;;;17.50;99.90;;;;;;4974733;28;20188;-77
2021/07/19 02:50:56;;;;;;;10.33;8.40;;;17.50;99.90;;;;;;4976049;28;20190;-77
2021/07/19 02:53:24;;;;;;;9.03;8.20;;;17.50;99.90;;;;;;4958788;28;20197;-76
2021/07/19 02:55:50;;;;;;;9.10;8.30;;;17.50;99.90;;;;;;4976376;28;20281;-77
2021/07/19 02:58:18;;;;;;;9.13;8.00;;;17.50;99.90;;;;;;4975492;28;20218;-77
2021/07/19 03:00:45;;;;;;;8.67;7.83;;;17.50;99.90;;;;;;4976093;28;20208;-77
2021/07/19 03:03:25;;;;;;;7.87;7.23;;;17.50;99.90;;;;;;4975249;28;20183;-75
2021/07/19 03:06:14;;;;;;;8.77;7.93;;;17.40;99.90;;;;;;4958054;28;20250;-77
2021/07/19 03:08:42;;;;;;;8.33;7.53;;;17.40;99.90;;;;;;4975452;28;20222;-77
2021/07/19 03:11:20;;;;;;;8.03;7.20;;;17.40;99.90;;;;;;4957445;28;20198;-76
2021/07/19 03:13:52;;;;;;;8.80;7.27;;;17.30;99.90;;;;;;4974367;28;20211;-76
2021/07/19 03:16:20;;;;;;;8.10;7.40;;;17.30;99.90;;;;;;4974759;28;20184;-76
2021/07/19 03:18:47;;;;;;;8.23;7.43;;;17.20;99.90;;;;;;4938400;29;20182;-77
2021/07/19 03:21:16;;;;;;;8.57;7.77;;;17.20;99.90;;;;;;4963008;28;20179;-76
2021/07/19 03:23:44;;;;;;;8.43;7.50;;;17.20;99.90;;;;;;4971532;28;20179;-76
2021/07/19 03:26:10;;;;;;;8.23;6.97;;;17.10;99.90;;;;;;4957575;28;20225;-76
2021/07/19 03:28:37;;;;;;;8.37;7.40;;;17.10;99.90;;;;;;4958049;28;20726;-75
2021/07/19 03:31:04;;;;;;;12.23;7.57;;;17.10;99.90;;;;;;4974994;28;20175;-76
2021/07/19 03:33:31;;;;;;;8.97;7.73;;;17.00;99.90;;;;;;4974982;28;20205;-76
2021/07/19 03:35:57;;;;;;;8.43;7.57;;;17.00;99.90;;;;;;4974787;28;20229;-78
2021/07/19 03:38:24;;;;;;;8.50;7.27;;;16.90;99.90;;;;;;4974820;28;20733;-76
2021/07/19 03:40:53;;;;;;;7.67;6.97;;;17.00;99.90;;;;;;4974743;28;20178;-77
2021/07/19 03:43:18;;;;;;;7.50;6.73;;;17.10;99.90;;;;;;4975384;28;20211;-76
2021/07/19 03:45:46;;;;;;;9.23;6.57;;;17.20;99.90;;;;;;4978518;28;20238;-76
2021/07/19 03:48:12;;;;;;;8.47;6.67;;;17.20;99.90;;;;;;4978476;28;20182;-77
2021/07/19 03:50:38;;;;;;;7.00;6.40;;;17.20;99.90;;;;;;4960830;28;20192;-76
2021/07/19 03:53:06;;;;;;;10.50;6.67;;;17.30;99.90;;;;;;4978204;28;20285;-77
2021/07/19 03:55:32;;;;;;;7.90;6.30;;;17.40;99.90;;;;;;4977720;28;20209;-75
2021/07/19 03:57:58;;;;;;;8.40;6.13;;;17.40;99.90;;;;;;4977339;28;20172;-77
2021/07/19 04:00:26;;;;;;;6.30;5.80;;;17.40;99.90;;;;;;4958582;28;20184;-76
2021/07/19 04:02:54;;;;;;;7.07;6.37;;;17.50;99.90;;;;;;4959486;28;20271;-77
2021/07/19 04:05:22;;;;;;;7.30;6.63;;;17.50;99.90;;;;;;4963569;28;20252;-77
2021/07/19 04:07:49;;;;;;;6.87;6.27;;;17.50;99.90;;;;;;4973225;28;20207;-77
2021/07/19 04:10:18;;;;;;;7.00;6.40;;;17.60;99.90;;;;;;4977729;28;20653;-77
2021/07/19 04:12:47;;;;;;;8.30;5.83;;;17.60;99.90;;;;;;4977732;28;20255;-76
2021/07/19 04:15:14;;;;;;;6.70;6.00;;;17.60;99.90;;;;;;4977486;28;20223;-77
2021/07/19 04:17:40;;;;;;;7.83;6.13;;;17.70;99.90;;;;;;4978613;28;20179;-77
2021/07/19 04:20:09;;;;;;;7.20;5.97;;;17.60;99.90;;;;;;4978762;28;20712;-76
2021/07/19 04:22:35;;;;;;;6.33;5.73;;;17.60;99.90;;;;;;4979172;28;20180;-76
2021/07/19 04:25:07;;;;;;;6.63;6.03;;;17.60;99.90;;;;;;4978756;28;20206;-76
2021/07/19 04:27:40;;;;;;;6.63;6.03;;;17.60;99.90;;;;;;4954371;28;20547;-76
2021/07/19 04:30:08;;;;;;;9.03;5.97;;;17.70;99.90;;;;;;4977720;28;20179;-76
2021/07/19 04:32:34;;;;;;;7.47;5.87;;;17.70;99.90;;;;;;4977634;28;20190;-76
2021/07/19 04:35:00;;;;;;;6.97;6.27;;;17.70;99.90;;;;;;4977621;28;20197;-76
2021/07/19 04:37:26;;;;;;;6.17;5.63;;;17.70;99.90;;;;;;4977748;28;20654;-76
2021/07/19 04:39:52;;;;;;;6.03;5.30;;;17.70;99.90;;;;;;4978092;28;20182;-76
2021/07/19 04:42:18;;;;;;;6.47;5.83;;;17.70;99.90;;;;;;4977709;28;20170;-76
2021/07/19 04:44:44;;;;;;;9.13;5.73;;;17.70;99.90;;;;;;4977434;28;20567;-77
2021/07/19 04:47:10;;;;;;;6.80;5.40;;;17.70;99.90;;;;;;4977269;28;20611;-76
2021/07/19 04:49:40;;;;;;;6.93;5.27;;;17.80;99.90;;;;;;4977404;28;20204;-76
2021/07/19 04:52:06;;;;;;;6.20;5.63;;;17.70;99.90;;;;;;4978626;28;20175;-76
2021/07/19 04:54:37;;;;;;;5.80;5.27;;;17.70;99.90;;;;;;4983424;28;20215;-77
2021/07/19 04:57:05;;;;;;;6.60;5.27;;;17.80;99.90;;;;;;4983234;28;20183;-78
2021/07/19 04:59:36;;;;;;;5.50;5.00;;;17.80;99.90;;;;;;4981574;28;20172;-77
2021/07/19 05:02:03;;;;;;;6.07;5.47;;;17.90;99.90;;;;;;4964252;28;20588;-77
2021/07/19 05:04:29;;;;;;;6.17;5.67;;;17.80;99.90;;;;;;4980816;28;20263;-78
2021/07/19 05:06:56;;;;;;;5.50;4.90;;;17.90;99.90;;;;;;4979102;28;20176;-77
2021/07/19 05:09:24;;;;;;;6.10;4.93;;;17.90;99.90;;;;;;4979336;28;20176;-77
2021/07/19 05:11:51;;;;;;;5.97;5.23;;;18.00;99.90;;;;;;4978285;28;20550;-78
2021/07/19 05:14:17;;;;;;;6.20;5.20;;;18.10;99.90;;;;;;4978471;23;20223;-83
2021/07/19 05:16:45;;;;;;;5.10;4.67;;;18.20;99.90;;;;;;4975850;28;20180;-84
2021/07/19 05:19:11;;;;;;;6.97;4.40;;;18.20;99.90;;;;;;4978611;28;20561;-82
2021/07/19 05:21:38;;;;;;;5.37;4.70;;;18.30;99.90;;;;;;4991526;28;20711;-82
2021/07/19 05:24:05;;;;;;;5.60;5.10;;;18.40;99.90;;;;;;4990866;28;20180;-83
2021/07/19 05:26:31;;;;;;;4.60;4.20;;;18.50;99.90;;;;;;4956242;29;20216;-83
2021/07/19 05:28:57;;;;;;;4.73;4.10;;;18.50;99.90;;;;;;4973555;29;20169;-82
2021/07/19 05:31:24;;;;;;;4.83;4.43;;;18.60;99.90;;;;;;4956166;29;20271;-82
2021/07/19 05:33:50;;;;;;;4.70;4.07;;;18.60;99.90;;;;;;4954741;29;20204;-82
2021/07/19 05:36:16;;;;;;;4.73;4.33;;;18.60;99.90;;;;;;4971712;28;20203;-82
2021/07/19 05:38:42;;;;;;;5.30;4.30;;;18.70;99.90;;;;;;4972102;29;20247;-82
2021/07/19 05:41:09;;;;;;;4.63;4.20;;;18.80;99.90;;;;;;4973249;29;20232;-81
2021/07/19 05:43:35;;;;;;;4.03;3.60;;;18.80;99.90;;;;;;4954504;29;20181;-82
2021/07/19 05:46:02;;;;;;;7.37;4.13;;;18.90;99.90;;;;;;4955823;29;20652;-83
2021/07/19 05:48:28;;;;;;;4.73;4.17;;;19.00;99.90;;;;;;4956281;29;20192;-83
2021/07/19 05:50:55;;;;;;;5.63;4.23;;;19.10;99.90;;;;;;4955766;29;20257;-81
2021/07/19 05:53:20;;;;;;;8.37;4.40;;;19.10;99.90;;;;;;4972770;29;20216;-81
2021/07/19 05:55:48;;;;;;;7.33;4.60;;;19.20;99.90;;;;;;4955541;29;20201;-81
2021/07/19 05:58:15;;;;;;;4.37;4.00;;;19.30;99.90;;;;;;4956230;29;20177;-82
2021/07/19 06:00:40;;;;;;;4.83;4.03;;;19.40;99.90;;;;;;4955311;29;20242;-80
2021/07/19 06:03:06;;;;;;;7.60;3.93;;;19.50;99.90;;;;;;4972975;29;20671;-80
2021/07/19 06:05:32;;;;;;;4.47;4.10;;;19.50;99.90;;;;;;4955029;28;20205;-80
2021/07/19 06:07:58;;;;;;;5.87;4.30;;;19.60;99.90;;;;;;4972664;29;20188;-81
2021/07/19 06:10:25;;;;;;;4.67;4.27;;;19.60;99.90;;;;;;4972959;29;20177;-81
2021/07/19 06:12:52;;;;;;;6.73;4.30;;;19.60;99.90;;;;;;4972950;29;20263;-81
2021/07/19 06:15:17;;;;;;;4.73;3.83;;;19.60;99.90;;;;;;4972780;28;20213;-81
2021/07/19 06:17:43;;;;;;;4.87;4.27;;;19.80;99.90;;;;;;4955510;29;20173;-80
2021/07/19 06:20:15;;;;;;;4.87;4.10;;;19.90;99.90;;;;;;4973301;29;20209;-82
2021/07/19 06:22:42;;;;;;;5.90;4.13;;;20.00;99.90;;;;;;4973110;29;20177;-80
2021/07/19 06:25:11;;;;;;;4.60;4.20;;;20.10;99.90;;;;;;4955077;29;20201;-82
2021/07/19 06:27:37;;;;;;;4.63;3.90;;;20.20;99.90;;;;;;4972959;29;20200;-81
2021/07/19 06:30:06;;;;;;;5.13;4.60;;;20.30;99.90;;;;;;4972248;29;20208;-82
2021/07/19 06:32:32;;;;;;;5.67;4.23;;;20.30;99.90;;;;;;4958194;29;20169;-81
2021/07/19 06:34:58;;;;;;;8.67;4.07;;;20.30;99.90;;;;;;4954825;29;20244;-80
2021/07/19 06:37:24;;;;;;;4.77;4.03;;;20.40;99.90;;;;;;4954596;29;20169;-80
2021/07/19 06:39:49;;;;;;;4.83;4.10;;;20.40;99.90;;;;;;4955230;29;20262;-80
2021/07/19 06:42:15;;;;;;;4.77;3.63;;;20.50;99.90;;;;;;4954364;29;20176;-80
2021/07/19 06:44:41;;;;;;;5.13;4.17;;;20.50;99.90;;;;;;4954373;29;20205;-81
2021/07/19 06:47:06;;;;;;;4.80;4.40;;;20.60;99.90;;;;;;4955060;29;20180;-81
2021/07/19 06:49:32;;;;;;;6.93;4.67;;;20.70;99.90;;;;;;4955238;29;20184;-83
2021/07/19 06:51:58;;;;;;;6.63;5.27;;;20.70;99.90;;;;;;4971496;29;20173;-81
2021/07/19 06:54:23;;;;;;;6.33;5.00;;;20.80;99.90;;;;;;4971487;28;20364;-81
2021/07/19 06:56:49;;;;;;;6.77;4.60;;;20.90;99.90;;;;;;4971709;29;20210;-82
2021/07/19 06:59:15;;;;;;;5.70;5.20;;;21.00;99.90;;;;;;4954117;29;20189;-81
2021/07/19 07:01:41;;;;;;;6.37;5.20;;;21.00;99.90;;;;;;4954847;29;20173;-82
2021/07/19 07:04:07;;;;;;;5.23;4.73;;;21.00;99.90;;;;;;4971961;28;20173;-82
2021/07/19 07:06:33;;;;;;;7.17;5.50;;;21.00;99.90;;;;;;4971357;29;20196;-82
2021/07/19 07:08:59;;;;;;;7.53;5.03;;;21.00;99.90;;;;;;4971782;29;20184;-81
2021/07/19 07:11:27;;;;;;;5.37;4.67;;;21.00;99.90;;;;;;4972414;29;20185;-81
2021/07/19 07:13:54;;;;;;;7.03;5.20;;;21.10;99.90;;;;;;4971905;29;20247;-81
2021/07/19 07:16:19;;;;;;;6.80;6.20;;;21.20;99.90;;;;;;4955103;29;20270;-81
2021/07/19 07:18:45;;;;;;;6.07;5.50;;;21.30;99.90;;;;;;4970960;28;20180;-81
2021/07/19 07:21:11;;;;;;;6.40;5.80;;;21.30;99.90;;;;;;4955078;29;20177;-81
2021/07/19 07:23:37;;;;;;;6.50;5.83;;;21.30;99.90;;;;;;4955156;29;20181;-79
2021/07/19 07:26:03;;;;;;;5.20;4.80;;;21.30;99.90;;;;;;4954664;29;20197;-81
2021/07/19 07:28:28;;;;;;;5.90;5.33;;;21.40;99.90;;;;;;4971417;29;20169;-82
2021/07/19 07:30:54;;;;;;;9.13;5.27;;;21.50;99.90;;;;;;4954656;29;20211;-81
2021/07/19 07:33:19;;;;;;;5.97;4.70;;;21.60;99.90;;;;;;4954409;29;20225;-81
2021/07/19 07:35:46;;;;;;;5.17;4.40;;;21.60;99.90;;;;;;4954670;29;20272;-82
2021/07/19 07:38:13;;;;;;;5.37;4.30;;;21.70;99.90;;;;;;4971827;28;20256;-81
2021/07/19 07:40:38;;;;;;;4.70;4.30;;;21.90;99.90;;;;;;4971919;29;20176;-80
2021/07/19 07:43:04;;;;;;;5.30;4.80;;;22.00;99.90;;;;;;4971998;29;20177;-82
2021/07/19 07:45:30;;;;;;;4.57;4.27;;;22.00;99.90;;;;;;4971345;28;20208;-83
2021/07/19 07:47:55;;;;;;;4.67;4.27;;;22.00;99.90;;;;;;4954978;29;20204;-81
2021/07/19 07:50:21;;;;;;;5.80;4.57;;;22.10;99.90;;;;;;4954804;29;20565;-82
2021/07/19 07:52:47;;;;;;;5.10;4.33;;;22.30;99.90;;;;;;4971966;29;20178;-83
2021/07/19 07:55:13;;;;;;;5.10;4.53;;;22.30;99.90;;;;;;4971916;28;20197;-81
2021/07/19 07:57:39;;;;;;;5.70;4.47;;;22.50;99.90;;;;;;4972524;29;20192;-81
2021/07/19 08:00:14;;;;;;;4.73;4.20;;;22.60;99.90;;;;;;4955011;29;20618;-82
2021/07/19 08:02:39;;;;;;;5.27;4.20;;;22.60;99.90;;;;;;4972065;29;20651;-82
2021/07/19 08:05:06;;;;;;;4.57;4.17;;;22.70;99.90;;;;;;4971651;28;20205;-81
2021/07/19 08:07:32;;;;;;;9.33;4.27;;;;;;;;;;4971981;29;20268;-81
2021/07/19 08:09:59;;;;;;;4.47;4.00;;;22.80;99.90;;;;;;4954663;29;20209;-82
2021/07/19 08:12:25;;;;;;;4.43;4.03;;;22.90;99.90;;;;;;4971879;29;20244;-81
2021/07/19 08:14:52;;;;;;;4.47;3.93;;;22.80;99.90;;;;;;4971194;28;20217;-80
2021/07/19 08:17:18;;;;;;;3.57;3.10;;;23.00;99.90;;;;;;4953836;29;20181;-82
2021/07/19 08:19:45;;;;;;;4.23;3.70;;;23.10;99.90;;;;;;4970676;29;20179;-80
2021/07/19 08:22:13;;;;;;;3.53;3.17;;;23.10;99.90;;;;;;4954545;29;20173;-81
2021/07/19 08:24:42;;;;;;;4.13;3.73;;;23.10;99.90;;;;;;4970813;28;20227;-81
2021/07/19 08:27:09;;;;;;;5.13;3.63;;;23.30;99.90;;;;;;4954425;29;20178;-81
2021/07/19 08:29:35;;;;;;;4.73;3.73;;;23.40;99.90;;;;;;4973016;28;20181;-81
2021/07/19 08:32:00;;;;;;;4.90;3.40;;;23.60;99.90;;;;;;4971742;29;20173;-82
2021/07/19 08:34:26;;;;;;;3.40;3.10;;;23.70;99.90;;;;;;4955452;29;20209;-80
2021/07/19 08:36:52;;;;;;;4.13;3.53;;;23.80;99.90;;;;;;4965023;28;20176;-80
2021/07/19 08:39:17;;;;;;;3.60;3.20;;;23.80;99.90;;;;;;4977715;29;20200;-81
2021/07/19 08:41:43;;;;;;;3.57;3.00;;;24.00;99.90;;;;;;4958811;29;20569;-80
2021/07/19 08:44:10;;;;;;;5.17;3.20;;;24.00;99.90;;;;;;4975493;28;20201;-82
2021/07/19 08:46:39;;;;;;;6.47;3.57;;;24.00;99.90;;;;;;4957850;29;20181;-80
2021/07/19 08:49:05;;;;;;;3.10;2.80;;;24.00;99.90;;;;;;4974931;29;20177;-82
2021/07/19 08:51:31;;;;;;;3.97;2.80;;;24.10;99.90;;;;;;4973901;29;20208;-80
2021/07/19 08:54:00;;;;;;;4.17;3.00;;;24.20;99.90;;;;;;4973646;28;20212;-80
2021/07/19 08:56:28;;;;;;;3.60;3.17;;;24.30;99.90;;;;;;4973896;29;20185;-81
2021/07/19 08:58:54;;;;;;;3.17;2.87;;;24.20;99.90;;;;;;4956711;29;20169;-80
2021/07/19 09:01:20;;;;;;;6.40;3.20;;;24.30;99.90;;;;;;4974092;29;20181;-82
2021/07/19 09:03:47;;;;;;;3.47;2.70;;;24.50;99.90;;;;;;4973860;29;20252;-80
2021/07/19 09:06:13;;;;;;;2.87;2.50;;;24.60;99.90;;;;;;4974691;28;20189;-80
2021/07/19 09:08:50;;;;;;;3.17;2.53;;;24.60;99.90;;;;;;4956915;29;20325;-80
2021/07/19 09:11:18;;;;;;;3.60;2.73;;;24.70;99.90;;;;;;4957156;29;20244;-80
2021/07/19 09:14:05;;;;;;;3.70;2.70;;;24.80;99.90;;;;;;4957027;29;20192;-81
2021/07/19 09:16:48;;;;;;;2.47;2.17;;;24.80;99.90;;;;;;4974046;29;20660;-81
2021/07/19 09:19:15;;;;;;;2.80;2.60;;;24.80;99.90;;;;;;4956782;29;20183;-80
2021/07/19 09:21:45;;;;;;;2.80;2.60;;;25.00;99.90;;;;;;4957317;29;20181;-82
2021/07/19 09:24:14;;;;;;;2.37;2.17;;;25.00;99.90;;;;;;4957514;28;20648;-80
2021/07/19 09:26:43;;;;;;;2.50;2.30;;;25.00;99.90;;;;;;4973354;29;20180;-81
2021/07/19 09:29:11;;;;;;;2.57;2.37;;;25.00;99.90;;;;;;4973382;29;20193;-80
2021/07/19 09:31:44;;;;;;;2.57;1.97;;;25.10;99.90;;;;;;4956992;29;20192;-80
2021/07/19 09:34:14;;;;;;;3.30;2.80;;;25.30;99.90;;;;;;4973810;28;20185;-81
2021/07/19 09:36:56;;;;;;;2.97;2.50;;;25.40;99.90;;;;;;4974859;28;20229;-81
2021/07/19 09:39:22;;;;;;;2.50;2.30;;;25.40;99.90;;;;;;4957333;29;20188;-80
2021/07/19 09:41:48;;;;;;;2.83;2.50;;;25.40;99.90;;;;;;4972462;28;20174;-80
2021/07/19 09:44:14;;;;;;;3.07;2.20;;;25.60;99.90;;;;;;4973451;28;20193;-80
2021/07/19 09:46:40;;;;;;;2.23;2.07;;;25.80;99.90;;;;;;4973166;29;20652;-80
2021/07/19 09:49:06;;;;;;;3.00;1.90;;;25.80;99.90;;;;;;4956702;29;20178;-82
2021/07/19 09:51:34;;;;;;;2.30;2.10;;;25.80;99.90;;;;;;4973544;29;20184;-81
2021/07/19 09:54:12;;;;;;;2.60;1.77;;;25.90;99.90;;;;;;4972613;28;20197;-82
2021/07/19 09:56:39;;;;;;;1.97;1.83;;;26.00;99.90;;;;;;4972963;29;20165;-82
2021/07/19 09:59:09;;;;;;;2.27;1.97;;;25.90;99.90;;;;;;4973450;29;20641;-81
2021/07/19 10:01:42;;;;;;;2.57;2.10;;;25.90;99.90;;;;;;4956527;29;20170;-82
2021/07/19 10:04:25;;;;;;;2.50;1.80;;;25.90;99.90;;;;;;4955716;28;20181;-80
2021/07/19 10:06:55;;;;;;;3.30;2.00;;;26.00;99.90;;;;;;4973200;29;20206;-82
2021/07/19 10:09:22;;;;;;;2.60;2.40;;;26.20;99.90;;;;;;4973484;29;20186;-81
2021/07/19 10:11:53;;;;;;;2.47;2.10;;;26.20;99.90;;;;;;4956039;29;20706;-81
2021/07/19 10:14:34;;;;;;;2.50;2.23;;;26.20;99.90;;;;;;4954936;28;20726;-81
2021/07/19 10:17:03;;;;;;;2.43;2.17;;;26.30;99.90;;;;;;4955914;29;20196;-82
2021/07/19 10:20:29;;;;;;;2.63;2.17;;;26.40;99.90;;;;;;4973238;29;20165;-81
2021/07/19 10:22:54;;;;;;;3.07;2.03;;;26.30;99.90;;;;;;4971984;29;20185;-81
2021/07/19 10:25:20;;;;;;;2.57;2.37;;;26.20;99.90;;;;;;4973307;28;20200;-83
2021/07/19 10:27:47;;;;;;;3.40;2.07;;;26.30;99.90;;;;;;4972373;29;20174;-81
2021/07/19 10:30:14;;;;;;;3.20;2.00;;;26.40;99.90;;;;;;4955226;29;20181;-83
2021/07/19 10:32:39;;;;;;;2.70;2.23;;;26.50;99.90;;;;;;4955685;29;20184;-81
2021/07/19 10:35:07;;;;;;;3.30;2.27;;;26.60;99.90;;;;;;4955124;29;20304;-83
2021/07/19 10:37:50;;;;;;;2.40;2.20;;;26.60;99.90;;;;;;4958222;29;20265;-81
2021/07/19 10:40:33;;;;;;;2.43;2.23;;;26.60;99.90;;;;;;4973062;29;20327;-81
2021/07/19 10:43:08;;;;;;;3.60;2.30;;;26.60;99.90;;;;;;4972270;29;20165;-81
2021/07/19 10:45:41;;;;;;;2.37;2.27;;;26.60;99.90;;;;;;4955322;29;20204;-83
2021/07/19 10:48:07;;;;;;;4.67;2.30;;;26.60;99.90;;;;;;4972234;29;20181;-81
2021/07/19 10:50:39;;;;;;;2.53;2.33;;;26.50;99.90;;;;;;4956015;29;20181;-81
2021/07/19 10:53:16;;;;;;;2.80;2.60;;;26.60;99.90;;;;;;4972463;28;20233;-83
2021/07/19 10:55:42;;;;;;;3.33;2.33;;;26.50;99.90;;;;;;4955793;29;20193;-81
2021/07/19 10:58:13;;;;;;;3.27;2.30;;;26.70;99.90;;;;;;4972235;29;20183;-82
2021/07/19 11:00:40;;;;;;;3.07;2.53;;;26.80;99.90;;;;;;4971329;29;20169;-81
2021/07/19 11:03:08;;;;;;;2.67;2.47;;;26.80;99.90;;;;;;4972172;29;20173;-82
2021/07/19 11:05:36;;;;;;;2.50;2.23;;;26.90;99.90;;;;;;4971398;28;20189;-81
2021/07/19 11:08:02;;;;;;;2.40;2.20;;;26.80;99.90;;;;;;4972355;29;20644;-81
2021/07/19 11:10:27;;;;;;;3.57;2.43;;;26.80;99.90;;;;;;4954281;29;20181;-81
2021/07/19 11:12:58;;;;;;;2.60;1.97;;;26.90;99.90;;;;;;4955237;29;20188;-81
2021/07/19 11:15:38;;;;;;;2.40;2.20;;;27.20;99.90;;;;;;4974980;23;20279;-76
2021/07/19 11:18:28;;;;;;;2.60;2.37;;;27.20;99.90;;;;;;4957033;29;20184;-76
2021/07/19 11:20:57;;;;;;;4.23;2.40;;;27.30;99.90;;;;;;4956002;28;20178;-77
2021/07/19 11:23:37;;;;;;;4.67;2.70;;;27.40;99.90;;;;;;4952069;29;20251;-77
2021/07/19 11:26:23;;;;;;;2.70;2.50;;;27.50;99.90;;;;;;4954337;28;20196;-77
2021/07/19 11:28:49;;;;;;;2.70;2.50;;;27.50;99.90;;;;;;4962138;28;20691;-77
2021/07/19 11:31:25;;;;;;;3.57;2.40;;;27.50;99.90;;;;;;4964347;28;20255;-77
2021/07/19 11:34:01;;;;;;;2.30;2.10;;;27.50;99.90;;;;;;4962178;29;20205;-77
2021/07/19 11:36:44;;;;;;;4.87;2.27;;;27.40;99.90;;;;;;4964031;28;20200;-78
2021/07/19 11:39:20;;;;;;;3.93;2.60;;;27.50;99.90;;;;;;4962031;28;20184;-78
2021/07/19 11:41:57;;;;;;;3.90;2.57;;;27.50;99.90;;;;;;4946047;28;20734;-78
2021/07/19 11:44:23;;;;;;;3.23;2.30;;;27.60;99.90;;;;;;4951227;29;20264;-79
2021/07/19 11:46:50;;;;;;;3.23;2.27;;;27.80;99.90;;;;;;4960549;28;20208;-78
2021/07/19 11:49:22;;;;;;;5.63;2.40;;;27.70;99.90;;;;;;4959458;28;20241;-78
2021/07/19 11:51:48;;;;;;;5.50;2.87;;;27.80;99.90;;;;;;4955211;28;20561;-77
2021/07/19 11:54:15;;;;;;;3.97;2.37;;;27.90;99.90;;;;;;4956636;29;20212;-77
2021/07/19 11:56:55;;;;;;;5.17;2.70;;;27.90;99.90;;;;;;4956518;28;20263;-79
2021/07/19 11:59:24;;;;;;;3.43;2.77;;;27.80;99.90;;;;;;4957806;29;20244;-78
2021/07/19 12:01:58;;;;;;;5.53;2.33;;;27.70;99.90;;;;;;4959260;28;20232;-79
2021/07/19 12:04:42;;;;;;;2.43;2.10;;;27.60;99.90;;;;;;4960839;28;20275;-78
2021/07/19 12:07:09;;;;;;;3.90;2.43;;;27.70;99.90;;;;;;4961721;28;20201;-79
2021/07/19 12:09:35;;;;;;;3.87;2.30;;;27.70;99.90;;;;;;4950099;29;20209;-78
2021/07/19 12:12:02;;;;;;;6.13;2.40;;;27.80;99.90;;;;;;4950866;29;20235;-77
2021/07/19 12:14:29;;;;;;;7.20;2.73;;;27.90;99.90;;;;;;4953122;29;20209;-78
2021/07/19 12:16:55;;;;;;;4.03;2.80;;;27.90;99.90;;;;;;4960617;28;20307;-78
2021/07/19 12:19:22;;;;;;;4.03;2.60;;;28.10;99.90;;;;;;4961587;28;20185;-77
2021/07/19 12:21:53;;;;;;;4.37;2.97;;;28.30;99.90;;;;;;4958360;28;20182;-78
2021/07/19 12:24:24;;;;;;;5.97;3.17;;;28.40;99.90;;;;;;4961859;29;20200;-78
2021/07/19 12:26:55;;;;;;;6.07;2.40;;;28.50;99.90;;;;;;4956183;28;20567;-78
2021/07/19 12:29:36;;;;;;;4.30;2.83;;;28.60;99.90;;;;;;4962881;29;20178;-78
2021/07/19 12:32:11;;;;;;;3.83;2.60;;;28.50;99.90;;;;;;4953255;29;20197;-78
2021/07/19 12:34:42;;;;;;;4.80;2.57;;;28.40;99.90;;;;;;4964843;28;20196;-78
2021/07/19 12:37:17;;;;;;;4.33;2.77;;;28.40;99.90;;;;;;4955766;29;20216;-77
2021/07/19 12:39:57;;;;;;;3.90;2.50;;;28.30;99.90;;;;;;4948345;28;20178;-77
2021/07/19 12:42:29;;;;;;;5.13;2.60;;;28.30;99.90;;;;;;4945837;29;20177;-77
2021/07/19 12:44:57;;;;;;;4.80;2.07;;;28.40;99.90;;;;;;4951834;28;20177;-78
2021/07/19 12:47:25;;;;;;;4.37;2.90;;;28.40;99.90;;;;;;4958065;28;20196;-79
2021/07/19 12:49:52;;;;;;;6.37;2.70;;;28.30;99.90;;;;;;4956455;28;20201;-78